createdAt,value
2022-11-14T00:01:25.363Z,6.07
2022-11-14T00:04:11.158Z,6.30
2022-11-14T00:06:57.734Z,6.50
2022-11-14T00:09:43.350Z,6.32
2022-11-14T00:12:30.596Z,6.18
2022-11-14T00:15:17.018Z,5.75
2022-11-14T00:18:02.785Z,6.00
2022-11-14T00:20:49.162Z,6.47
2022-11-14T00:23:37.009Z,7.85
2022-11-14T00:26:22.853Z,6.00
2022-11-14T00:29:11.348Z,8.20
2022-11-14T00:31:57.827Z,5.57
2022-11-14T00:34:43.844Z,5.50
2022-11-14T00:37:29.923Z,6.40
2022-11-14T00:40:16.504Z,6.38
2022-11-14T00:43:02.100Z,5.90
2022-11-14T00:45:49.238Z,6.30
2022-11-14T00:48:35.278Z,6.00
2022-11-14T00:51:21.732Z,8.98
2022-11-14T00:54:07.641Z,6.18
2022-11-14T00:56:53.625Z,6.63
2022-11-14T00:59:39.337Z,6.55
2022-11-14T01:02:26.473Z,6.07
2022-11-14T01:05:12.772Z,6.30
2022-11-14T01:07:58.812Z,6.15
2022-11-14T01:10:47.021Z,5.82
2022-11-14T01:13:33.589Z,6.43
2022-11-14T01:16:19.420Z,5.82
2022-11-14T01:19:06.665Z,5.78
2022-11-14T01:21:53.359Z,6.10
2022-11-14T01:24:39.375Z,5.25
2022-11-14T01:27:25.244Z,5.40
2022-11-14T01:30:12.861Z,5.75
2022-11-14T01:32:59.105Z,5.50
2022-11-14T01:35:46.350Z,5.50
2022-11-14T01:38:32.653Z,5.53
2022-11-14T01:41:19.105Z,5.45
2022-11-14T01:44:15.927Z,5.97
2022-11-14T01:47:01.707Z,6.03
2022-11-14T01:49:50.196Z,5.28
2022-11-14T01:52:40.606Z,4.78
2022-11-14T01:55:26.790Z,5.43
2022-11-14T01:58:13.008Z,5.60
2022-11-14T02:01:00.238Z,5.68
2022-11-14T02:03:50.201Z,5.40
2022-11-14T02:06:37.076Z,5.50
2022-11-14T02:09:24.942Z,5.07
2022-11-14T02:12:14.397Z,5.18
2022-11-14T02:15:01.215Z,4.88
2022-11-14T02:17:47.332Z,5.18
2022-11-14T02:20:38.079Z,4.82
2022-11-14T02:23:28.778Z,4.70
2022-11-14T02:26:18.749Z,4.82
2022-11-14T02:29:05.465Z,4.55
2022-11-14T02:31:51.957Z,4.68
2022-11-14T02:34:38.145Z,4.78
2022-11-14T02:37:25.488Z,4.93
2022-11-14T02:40:12.205Z,5.00
2022-11-14T02:42:58.357Z,4.20
2022-11-14T02:45:44.339Z,4.88
2022-11-14T02:48:30.531Z,5.20
2022-11-14T02:51:16.640Z,5.32
2022-11-14T02:54:04.279Z,5.80
2022-11-14T02:56:49.784Z,5.13
2022-11-14T02:59:35.720Z,4.95
2022-11-14T03:02:22.139Z,5.13
2022-11-14T03:05:09.163Z,4.22
2022-11-14T03:07:55.797Z,4.45
2022-11-14T03:10:43.055Z,3.88
2022-11-14T03:13:29.589Z,4.38
2022-11-14T03:16:15.530Z,4.25
2022-11-14T03:19:01.797Z,5.65
2022-11-14T03:21:47.732Z,6.00
2022-11-14T03:24:33.543Z,6.72
2022-11-14T03:27:21.141Z,6.13
2022-11-14T03:30:08.939Z,5.35
2022-11-14T03:32:56.462Z,6.43
2022-11-14T03:35:43.040Z,5.32
2022-11-14T03:38:29.601Z,4.80
2022-11-14T03:41:15.587Z,5.30
2022-11-14T03:44:02.797Z,4.68
2022-11-14T03:46:48.693Z,5.57
2022-11-14T03:49:34.575Z,4.63
2022-11-14T03:52:20.325Z,5.03
2022-11-14T03:55:07.165Z,6.20
2022-11-14T03:57:53.305Z,5.30
2022-11-14T04:00:41.239Z,5.85
2022-11-14T04:03:26.994Z,6.88
2022-11-14T04:06:12.766Z,6.50
2022-11-14T04:08:58.519Z,8.18
2022-11-14T04:11:44.390Z,9.85
2022-11-14T04:14:30.197Z,8.27
2022-11-14T04:17:17.574Z,8.57
2022-11-14T04:20:03.845Z,7.35
2022-11-14T04:22:49.743Z,7.63
2022-11-14T04:25:37.679Z,7.05
2022-11-14T04:28:23.723Z,6.55
2022-11-14T04:31:09.678Z,5.97
2022-11-14T04:33:57.367Z,6.35
2022-11-14T04:36:43.325Z,5.63
2022-11-14T04:39:29.406Z,5.90
2022-11-14T04:42:15.535Z,5.40
2022-11-14T04:45:01.436Z,5.07
2022-11-14T04:47:47.227Z,5.70
2022-11-14T04:50:35.079Z,7.22
2022-11-14T04:53:21.253Z,6.78
2022-11-14T04:56:07.416Z,7.28
2022-11-14T04:58:53.276Z,11.90
2022-11-14T05:01:39.186Z,7.47
2022-11-14T05:04:24.930Z,7.05
2022-11-14T05:07:12.162Z,6.57
2022-11-14T05:09:58.918Z,7.22
2022-11-14T05:12:44.842Z,6.00
2022-11-14T05:15:31.124Z,6.35
2022-11-14T05:18:17.173Z,6.40
2022-11-14T05:21:03.525Z,9.48
2022-11-14T05:23:51.070Z,8.32
2022-11-14T05:26:37.464Z,8.73
2022-11-14T05:29:23.445Z,9.50
2022-11-14T05:32:15.105Z,11.05
2022-11-14T05:35:02.584Z,12.27
2022-11-14T05:37:48.360Z,12.18
2022-11-14T05:40:35.780Z,13.85
2022-11-14T05:43:21.817Z,17.45
2022-11-14T05:46:10.310Z,18.13
2022-11-14T05:48:56.629Z,17.23
2022-11-14T05:51:42.642Z,17.45
2022-11-14T05:54:28.484Z,48.33
2022-11-14T05:57:16.141Z,28.55
2022-11-14T06:00:02.182Z,30.75
2022-11-14T06:02:47.807Z,25.85
2022-11-14T06:05:35.738Z,26.80
2022-11-14T06:08:22.314Z,24.25
2022-11-14T06:11:10.479Z,24.10
2022-11-14T06:13:57.889Z,21.48
2022-11-14T06:16:44.090Z,18.10
2022-11-14T06:19:30.029Z,16.65
2022-11-14T06:22:15.828Z,15.10
2022-11-14T06:25:02.357Z,13.70
2022-11-14T06:27:48.762Z,13.25
2022-11-14T06:30:36.161Z,12.35
2022-11-14T06:33:22.274Z,10.65
2022-11-14T06:36:09.371Z,10.85
2022-11-14T06:38:55.254Z,11.20
2022-11-14T06:41:41.104Z,13.20
2022-11-14T06:44:30.649Z,11.38
2022-11-14T06:50:03.610Z,12.10
2022-11-14T06:52:52.523Z,10.77
2022-11-14T06:55:38.510Z,10.10
2022-11-14T06:58:26.987Z,10.27
2022-11-14T07:01:15.226Z,9.63
2022-11-14T07:04:02.676Z,9.90
2022-11-14T07:06:48.962Z,11.02
2022-11-14T07:09:34.776Z,10.00
2022-11-14T07:12:20.594Z,11.57
2022-11-14T07:15:07.411Z,12.63
2022-11-14T07:17:53.286Z,11.30
2022-11-14T07:20:40.465Z,11.20
2022-11-14T07:23:26.858Z,11.70
2022-11-14T07:26:13.441Z,12.02
2022-11-14T07:29:02.474Z,11.63
2022-11-14T07:34:34.401Z,10.25
2022-11-14T07:37:21.753Z,10.52
2022-11-14T07:40:09.011Z,9.68
2022-11-14T07:42:58.248Z,9.55
2022-11-14T07:45:44.477Z,20.67
2022-11-14T07:48:31.144Z,17.00
2022-11-14T07:51:19.279Z,17.20
2022-11-14T07:54:06.853Z,16.50
2022-11-14T07:56:52.985Z,16.75
2022-11-14T07:59:38.723Z,16.90
2022-11-14T08:02:24.821Z,16.25
2022-11-14T08:05:10.544Z,17.00
2022-11-14T08:07:56.285Z,16.42
2022-11-14T08:10:43.452Z,17.10
2022-11-14T08:13:33.133Z,15.25
2022-11-14T08:16:20.271Z,16.42
2022-11-14T08:19:06.176Z,14.77
2022-11-14T08:21:51.964Z,14.43
2022-11-14T08:24:37.809Z,14.18
2022-11-14T08:27:25.649Z,14.00
2022-11-14T08:30:13.711Z,14.65
2022-11-14T08:33:02.426Z,14.80
2022-11-14T08:35:48.677Z,14.77
2022-11-14T08:38:34.705Z,14.38
2022-11-14T08:41:20.823Z,14.32
2022-11-14T08:44:08.802Z,13.15
2022-11-14T08:46:55.345Z,14.13
2022-11-14T08:49:41.474Z,14.25
2022-11-14T08:52:28.306Z,12.98
2022-11-14T08:55:15.034Z,13.32
2022-11-14T08:58:01.411Z,12.73
2022-11-14T09:00:49.251Z,12.45
2022-11-14T09:03:45.048Z,12.82
2022-11-14T09:06:31.088Z,12.82
2022-11-14T09:09:16.996Z,12.55
2022-11-14T09:12:02.801Z,12.90
2022-11-14T09:14:48.565Z,13.52
2022-11-14T09:17:34.382Z,13.48
2022-11-14T09:20:24.865Z,14.00
2022-11-14T09:23:14.203Z,13.02
2022-11-14T09:26:04.625Z,12.98
2022-11-14T09:28:50.419Z,12.20
2022-11-14T09:31:36.316Z,11.75
2022-11-14T09:34:22.260Z,11.50
2022-11-14T09:37:09.848Z,11.73
2022-11-14T09:39:56.220Z,11.23
2022-11-14T09:43:02.816Z,11.18
2022-11-14T09:45:51.213Z,12.55
2022-11-14T09:48:37.973Z,13.20
2022-11-14T09:51:28.055Z,12.85
2022-11-14T09:54:21.880Z,12.88
2022-11-14T09:57:15.740Z,12.15
2022-11-14T10:00:01.896Z,12.85
2022-11-14T10:03:00.799Z,13.57
2022-11-14T10:05:57.759Z,14.02
2022-11-14T10:08:52.198Z,15.18
2022-11-14T10:11:44.374Z,16.70
2022-11-14T10:14:53.528Z,18.27
2022-11-14T10:17:57.303Z,18.17
2022-11-14T10:20:48.334Z,17.42
2022-11-14T10:23:45.950Z,16.90
2022-11-14T10:26:35.912Z,16.70
2022-11-14T10:29:47.879Z,15.60
2022-11-14T10:32:50.785Z,15.02
2022-11-14T10:35:41.260Z,15.32
2022-11-14T10:38:33.652Z,16.50
2022-11-14T10:41:50.035Z,16.80
2022-11-14T10:44:34.494Z,14.70
2022-11-14T10:47:24.300Z,15.00
2022-11-14T10:50:18.638Z,14.35
2022-11-14T10:53:16.554Z,14.60
2022-11-14T10:56:04.974Z,13.18
2022-11-14T10:58:51.217Z,12.43
2022-11-14T11:01:39.094Z,13.60
2022-11-14T11:04:31.888Z,11.05
2022-11-14T11:07:23.641Z,10.27
2022-11-14T11:10:20.079Z,9.82
2022-11-14T11:13:06.181Z,11.30
2022-11-14T11:15:57.387Z,10.75
2022-11-14T11:18:48.486Z,10.07
2022-11-14T11:21:49.099Z,11.15
2022-11-14T11:24:37.948Z,11.82
2022-11-14T11:27:26.119Z,10.82
2022-11-14T11:30:20.439Z,12.07
2022-11-14T11:33:17.876Z,10.32
2022-11-14T11:36:06.534Z,11.30
2022-11-14T11:38:53.902Z,11.25
2022-11-14T11:44:51.043Z,11.15
2022-11-14T11:47:37.598Z,10.68
2022-11-14T11:50:24.898Z,12.35
2022-11-14T11:53:19.363Z,10.75
2022-11-14T11:56:09.986Z,11.38
2022-11-14T11:59:03.262Z,12.38
2022-11-14T12:01:51.564Z,12.85
2022-11-14T12:04:37.627Z,12.38
2022-11-14T12:07:31.345Z,12.75
2022-11-14T12:10:22.151Z,13.57
2022-11-14T12:13:48.691Z,16.63
2022-11-14T12:16:56.754Z,14.32
2022-11-14T12:20:02.964Z,18.13
2022-11-14T12:23:12.350Z,17.08
2022-11-14T12:26:08.835Z,16.65
2022-11-14T12:29:21.235Z,16.77
2022-11-14T12:32:16.333Z,17.23
2022-11-14T12:35:07.399Z,16.58
2022-11-14T12:37:56.269Z,16.95
2022-11-14T12:40:50.769Z,16.73
2022-11-14T12:43:38.404Z,16.25
2022-11-14T12:46:26.075Z,16.98
2022-11-14T12:49:37.260Z,17.42
2022-11-14T12:52:43.550Z,16.98
2022-11-14T12:55:56.234Z,16.38
2022-11-14T12:58:59.327Z,16.52
2022-11-14T13:02:06.065Z,16.80
2022-11-14T13:05:14.892Z,14.82
2022-11-14T13:08:16.965Z,15.88
2022-11-14T13:11:33.652Z,15.73
2022-11-14T13:14:20.974Z,17.40
2022-11-14T13:17:25.037Z,17.58
2022-11-14T13:20:30.426Z,18.60
2022-11-14T13:23:58.089Z,18.10
2022-11-14T13:26:49.368Z,15.25
2022-11-14T13:29:56.686Z,13.88
2022-11-14T13:33:06.147Z,13.63
2022-11-14T13:36:02.235Z,13.30
2022-11-14T13:39:22.984Z,12.75
2022-11-14T13:42:18.190Z,13.70
2022-11-14T13:45:45.516Z,11.55
2022-11-14T13:48:53.132Z,11.18
2022-11-14T13:51:44.068Z,11.60
2022-11-14T13:54:30.862Z,11.23
2022-11-14T13:57:28.333Z,11.48
2022-11-14T14:00:20.408Z,10.40
2022-11-14T14:03:24.598Z,11.70
2022-11-14T14:06:35.629Z,9.95
2022-11-14T14:09:28.964Z,10.80
2022-11-14T14:12:33.731Z,10.75
2022-11-14T14:15:26.700Z,10.43
2022-11-14T14:18:24.545Z,10.35
2022-11-14T14:21:21.062Z,10.80
2022-11-14T14:24:21.044Z,10.88
2022-11-14T14:27:20.867Z,11.35
2022-11-14T14:30:10.953Z,11.40
2022-11-14T14:35:53.872Z,10.80
2022-11-14T14:38:42.133Z,10.77
2022-11-14T14:41:32.107Z,12.35
2022-11-14T14:44:24.256Z,10.57
2022-11-14T14:47:18.105Z,11.27
2022-11-14T14:50:14.161Z,11.20
2022-11-14T14:53:03.937Z,12.35
2022-11-14T14:55:56.771Z,11.40
2022-11-14T14:58:42.761Z,11.52
2022-11-14T15:01:32.910Z,12.02
2022-11-14T15:04:20.715Z,12.65
2022-11-14T15:07:17.630Z,11.98
2022-11-14T15:10:05.974Z,12.05
2022-11-14T15:12:53.831Z,12.48
2022-11-14T15:15:40.167Z,11.38
2022-11-14T15:18:28.728Z,10.85
2022-11-14T15:21:23.259Z,10.43
2022-11-14T15:24:15.698Z,10.98
2022-11-14T15:27:05.663Z,10.27
2022-11-14T15:29:55.857Z,12.40
2022-11-14T15:32:49.412Z,11.02
2022-11-14T15:35:37.147Z,12.38
2022-11-14T15:41:30.514Z,11.45
2022-11-14T15:44:30.241Z,10.25
2022-11-14T15:47:23.104Z,10.45
2022-11-14T15:50:26.580Z,10.18
2022-11-14T15:53:21.905Z,10.85
2022-11-14T15:56:11.119Z,9.75
2022-11-14T15:58:57.172Z,10.50
2022-11-14T16:01:44.879Z,9.82
2022-11-14T16:04:35.096Z,9.82
2022-11-14T16:07:21.332Z,9.27
2022-11-14T16:10:14.703Z,10.00
2022-11-14T16:13:00.433Z,10.25
2022-11-14T16:15:46.178Z,9.30
2022-11-14T16:18:32.045Z,10.00
2022-11-14T16:21:19.478Z,9.45
2022-11-14T16:24:05.968Z,10.43
2022-11-14T16:26:52.849Z,9.95
2022-11-14T16:29:39.112Z,10.55
2022-11-14T16:32:24.814Z,9.63
2022-11-14T16:35:13.317Z,9.10
2022-11-14T16:38:01.045Z,9.27
2022-11-14T16:40:47.052Z,9.60
2022-11-14T16:43:33.143Z,8.93
2022-11-14T16:46:19.334Z,9.02
2022-11-14T16:49:05.260Z,8.82
2022-11-14T16:51:52.117Z,9.73
2022-11-14T16:54:39.512Z,9.57
2022-11-14T16:57:26.720Z,9.45
2022-11-14T17:00:13.551Z,9.05
2022-11-14T17:03:00.175Z,8.90
2022-11-14T17:05:47.245Z,8.70
2022-11-14T17:08:33.326Z,9.10
2022-11-14T17:11:21.017Z,8.77
2022-11-14T17:14:08.556Z,9.35
2022-11-14T17:16:54.768Z,8.00
2022-11-14T17:19:40.817Z,8.90
2022-11-14T17:22:27.413Z,8.35
2022-11-14T17:25:14.023Z,9.30
2022-11-14T17:28:01.562Z,8.48
2022-11-14T17:30:47.442Z,9.32
2022-11-14T17:33:33.472Z,8.55
2022-11-14T17:36:20.617Z,9.27
2022-11-14T17:39:06.437Z,8.10
2022-11-14T17:41:52.309Z,7.30
2022-11-14T17:44:39.511Z,8.45
2022-11-14T17:47:25.664Z,7.57
2022-11-14T17:50:11.523Z,8.90
2022-11-14T17:52:57.336Z,8.80
2022-11-14T17:55:43.136Z,8.32
2022-11-14T17:58:30.903Z,8.30
2022-11-14T18:01:20.207Z,7.97
2022-11-14T18:04:06.783Z,8.35
2022-11-14T18:06:53.349Z,8.27
2022-11-14T18:09:40.618Z,9.48
2022-11-14T18:12:26.989Z,8.73
2022-11-14T18:15:13.164Z,8.55
2022-11-14T18:18:01.011Z,9.15
2022-11-14T18:20:47.163Z,7.82
2022-11-14T18:23:33.351Z,8.32
2022-11-14T18:26:20.726Z,8.43
2022-11-14T18:29:06.952Z,8.20
2022-11-14T18:31:53.746Z,7.93
2022-11-14T18:34:41.099Z,7.85
2022-11-14T18:37:27.604Z,8.20
2022-11-14T18:40:16.470Z,7.95
2022-11-14T18:43:03.399Z,8.40
2022-11-14T18:45:49.195Z,8.27
2022-11-14T18:48:35.695Z,8.07
2022-11-14T18:51:24.495Z,27.08
2022-11-14T18:54:11.356Z,10.95
2022-11-14T18:56:57.410Z,10.20
2022-11-14T18:59:43.190Z,9.02
2022-11-14T19:02:29.089Z,8.18
2022-11-14T19:05:14.806Z,9.32
2022-11-14T19:08:02.116Z,8.00
2022-11-14T19:10:48.034Z,7.78
2022-11-14T19:13:34.249Z,8.07
2022-11-14T19:16:20.847Z,8.10
2022-11-14T19:19:07.837Z,8.48
2022-11-14T19:21:53.587Z,7.45
2022-11-14T19:24:40.765Z,8.00
2022-11-14T19:27:26.762Z,7.82
2022-11-14T19:30:13.148Z,7.93
2022-11-14T19:32:59.264Z,8.20
2022-11-14T19:35:44.863Z,7.43
2022-11-14T19:38:31.134Z,7.05
2022-11-14T19:41:20.233Z,7.40
2022-11-14T19:44:06.307Z,7.38
2022-11-14T19:46:52.237Z,7.25
2022-11-14T19:49:38.088Z,7.40
2022-11-14T19:52:23.699Z,7.20
2022-11-14T19:55:09.594Z,7.00
2022-11-14T19:57:58.488Z,7.22
2022-11-14T20:00:44.825Z,7.20
2022-11-14T20:03:31.153Z,8.25
2022-11-14T20:06:19.891Z,7.60
2022-11-14T20:09:07.758Z,7.53
2022-11-14T20:11:53.932Z,7.53
2022-11-14T20:14:41.543Z,7.85
2022-11-14T20:17:27.646Z,7.32
2022-11-14T20:20:13.422Z,7.43
2022-11-14T20:22:59.297Z,7.10
2022-11-14T20:25:51.210Z,6.45
2022-11-14T20:28:37.535Z,6.63
2022-11-14T20:31:26.336Z,7.00
2022-11-14T20:34:12.526Z,6.55
2022-11-14T20:37:13.859Z,6.30
2022-11-14T20:40:00.040Z,6.63
2022-11-14T20:42:47.899Z,6.28
2022-11-14T20:45:33.617Z,6.10
2022-11-14T20:48:20.966Z,6.22
2022-11-14T20:51:09.058Z,5.75
2022-11-14T20:53:55.813Z,6.55
2022-11-14T20:56:41.583Z,6.60
2022-11-14T20:59:27.469Z,6.30
2022-11-14T21:02:13.224Z,6.50
2022-11-14T21:05:01.448Z,6.10
2022-11-14T21:07:47.299Z,5.88
2022-11-14T21:10:37.467Z,6.25
2022-11-14T21:13:23.428Z,5.57
2022-11-14T21:16:11.617Z,6.43
2022-11-14T21:18:58.523Z,6.70
2022-11-14T21:21:45.627Z,7.00
2022-11-14T21:24:34.498Z,6.72
2022-11-14T21:27:22.932Z,7.20
2022-11-14T21:30:09.342Z,7.00
2022-11-14T21:32:55.033Z,6.50
2022-11-14T21:35:41.223Z,6.40
2022-11-14T21:38:28.426Z,7.65
2022-11-14T21:41:16.752Z,6.47
2022-11-14T21:44:03.614Z,6.35
2022-11-14T21:46:49.714Z,6.32
2022-11-14T21:49:35.381Z,6.32
2022-11-14T21:52:21.602Z,7.45
2022-11-14T21:55:09.297Z,7.00
2022-11-14T21:57:55.769Z,7.25
2022-11-14T22:00:42.061Z,7.00
2022-11-14T22:03:28.075Z,6.65
2022-11-14T22:06:13.904Z,6.93
2022-11-14T22:08:59.821Z,6.55
2022-11-14T22:11:47.085Z,6.82
2022-11-14T22:14:33.095Z,6.55
2022-11-14T22:17:18.769Z,7.32
2022-11-14T22:20:05.216Z,8.20
2022-11-14T22:22:54.616Z,7.68
2022-11-14T22:28:28.675Z,7.32
2022-11-14T22:31:16.468Z,6.75
2022-11-14T22:34:03.070Z,6.35
2022-11-14T22:36:48.866Z,6.57
2022-11-14T22:39:34.463Z,6.75
2022-11-14T22:42:20.295Z,5.90
2022-11-14T22:45:09.031Z,6.55
2022-11-14T22:47:57.087Z,6.30
2022-11-14T22:50:43.295Z,6.50
2022-11-14T22:53:29.976Z,7.75
2022-11-14T22:56:16.892Z,8.30
2022-11-14T22:59:03.096Z,6.70
2022-11-14T23:01:50.365Z,6.35
2022-11-14T23:04:36.360Z,6.43
2022-11-14T23:07:23.026Z,6.18
2022-11-14T23:10:09.545Z,6.80
2022-11-14T23:12:55.237Z,5.57
2022-11-14T23:15:47.029Z,6.40
2022-11-14T23:18:34.611Z,6.00
2022-11-14T23:21:22.092Z,6.15
2022-11-14T23:24:14.140Z,5.50
2022-11-14T23:27:00.152Z,6.15
2022-11-14T23:29:46.153Z,6.90
2022-11-14T23:32:32.533Z,6.60
2022-11-14T23:35:20.140Z,6.10
2022-11-14T23:38:05.787Z,6.53
2022-11-14T23:40:54.991Z,6.40
2022-11-14T23:43:40.924Z,6.18
2022-11-14T23:46:26.796Z,6.00
2022-11-14T23:49:12.761Z,6.45
2022-11-14T23:52:00.119Z,7.03
2022-11-14T23:54:46.217Z,6.78
2022-11-14T23:57:32.038Z,7.60
